sensor_id;sensor_type;location;lat;lon;timestamp;P1;durP1;ratioP1;P2;durP2;ratioP2
46753;SDS011;32500;50.620;3.400;2023-05-29T00:02:22;67.50;;;52.10;;
46753;SDS011;32500;50.620;3.400;2023-05-29T00:04:48;69.18;;;52.45;;
46753;SDS011;32500;50.620;3.400;2023-05-29T00:07:13;68.55;;;52.17;;
46753;SDS011;32500;50.620;3.400;2023-05-29T00:09:39;68.80;;;52.13;;
46753;SDS011;32500;50.620;3.400;2023-05-29T00:12:05;68.63;;;52.28;;
46753;SDS011;32500;50.620;3.400;2023-05-29T00:14:31;65.88;;;51.70;;
46753;SDS011;32500;50.620;3.400;2023-05-29T00:16:56;67.32;;;52.38;;
46753;SDS011;32500;50.620;3.400;2023-05-29T00:19:22;69.72;;;52.28;;
46753;SDS011;32500;50.620;3.400;2023-05-29T00:21:49;68.68;;;52.22;;
46753;SDS011;32500;50.620;3.400;2023-05-29T00:24:15;68.07;;;52.35;;
46753;SDS011;32500;50.620;3.400;2023-05-29T00:26:42;66.20;;;51.78;;
46753;SDS011;32500;50.620;3.400;2023-05-29T00:29:08;67.65;;;51.85;;
46753;SDS011;32500;50.620;3.400;2023-05-29T00:31:34;66.95;;;51.72;;
46753;SDS011;32500;50.620;3.400;2023-05-29T00:34:01;70.13;;;52.65;;
46753;SDS011;32500;50.620;3.400;2023-05-29T00:36:27;67.50;;;52.08;;
46753;SDS011;32500;50.620;3.400;2023-05-29T00:38:53;68.53;;;52.35;;
46753;SDS011;32500;50.620;3.400;2023-05-29T00:41:19;67.45;;;52.10;;
46753;SDS011;32500;50.620;3.400;2023-05-29T00:43:45;67.32;;;52.13;;
46753;SDS011;32500;50.620;3.400;2023-05-29T00:46:12;67.30;;;52.28;;
46753;SDS011;32500;50.620;3.400;2023-05-29T00:48:38;69.35;;;52.25;;
46753;SDS011;32500;50.620;3.400;2023-05-29T00:51:06;67.40;;;51.97;;
46753;SDS011;32500;50.620;3.400;2023-05-29T00:53:33;68.55;;;52.22;;
46753;SDS011;32500;50.620;3.400;2023-05-29T00:55:59;65.38;;;51.75;;
46753;SDS011;32500;50.620;3.400;2023-05-29T00:58:26;66.82;;;51.95;;
46753;SDS011;32500;50.620;3.400;2023-05-29T01:00:52;67.05;;;52.03;;
46753;SDS011;32500;50.620;3.400;2023-05-29T01:03:18;66.13;;;52.40;;
46753;SDS011;32500;50.620;3.400;2023-05-29T01:05:47;65.22;;;51.63;;
46753;SDS011;32500;50.620;3.400;2023-05-29T01:08:13;68.72;;;52.05;;
46753;SDS011;32500;50.620;3.400;2023-05-29T01:10:39;66.30;;;51.50;;
46753;SDS011;32500;50.620;3.400;2023-05-29T01:13:20;68.05;;;52.08;;
46753;SDS011;32500;50.620;3.400;2023-05-29T01:26:52;69.80;;;52.33;;
46753;SDS011;32500;50.620;3.400;2023-05-29T01:29:26;68.82;;;52.42;;
46753;SDS011;32500;50.620;3.400;2023-05-29T01:31:58;67.40;;;52.22;;
46753;SDS011;32500;50.620;3.400;2023-05-29T01:34:27;69.32;;;52.22;;
46753;SDS011;32500;50.620;3.400;2023-05-29T01:36:53;67.05;;;52.00;;
46753;SDS011;32500;50.620;3.400;2023-05-29T01:39:19;67.60;;;52.25;;
46753;SDS011;32500;50.620;3.400;2023-05-29T01:41:46;67.72;;;52.15;;
46753;SDS011;32500;50.620;3.400;2023-05-29T01:44:13;67.22;;;52.35;;
46753;SDS011;32500;50.620;3.400;2023-05-29T01:46:40;68.13;;;52.35;;
46753;SDS011;32500;50.620;3.400;2023-05-29T01:49:08;67.30;;;51.88;;
46753;SDS011;32500;50.620;3.400;2023-05-29T01:51:34;67.50;;;51.67;;
46753;SDS011;32500;50.620;3.400;2023-05-29T01:54:00;65.95;;;51.45;;
46753;SDS011;32500;50.620;3.400;2023-05-29T01:56:27;67.65;;;51.50;;
46753;SDS011;32500;50.620;3.400;2023-05-29T01:58:54;66.13;;;51.83;;
46753;SDS011;32500;50.620;3.400;2023-05-29T02:01:23;66.75;;;52.13;;
46753;SDS011;32500;50.620;3.400;2023-05-29T02:03:49;66.28;;;52.08;;
46753;SDS011;32500;50.620;3.400;2023-05-29T02:06:18;67.57;;;51.83;;
46753;SDS011;32500;50.620;3.400;2023-05-29T02:08:44;66.65;;;51.67;;
46753;SDS011;32500;50.620;3.400;2023-05-29T02:11:10;67.32;;;51.72;;
46753;SDS011;32500;50.620;3.400;2023-05-29T02:13:36;66.47;;;51.83;;
46753;SDS011;32500;50.620;3.400;2023-05-29T02:16:02;65.07;;;51.72;;
46753;SDS011;32500;50.620;3.400;2023-05-29T02:18:28;66.10;;;51.83;;
46753;SDS011;32500;50.620;3.400;2023-05-29T02:20:53;66.30;;;51.47;;
46753;SDS011;32500;50.620;3.400;2023-05-29T02:23:19;66.68;;;51.65;;
46753;SDS011;32500;50.620;3.400;2023-05-29T02:25:45;67.55;;;51.80;;
46753;SDS011;32500;50.620;3.400;2023-05-29T02:28:11;64.68;;;51.45;;
46753;SDS011;32500;50.620;3.400;2023-05-29T02:30:37;66.68;;;51.90;;
46753;SDS011;32500;50.620;3.400;2023-05-29T02:33:02;66.05;;;51.60;;
46753;SDS011;32500;50.620;3.400;2023-05-29T02:35:28;66.78;;;51.65;;
46753;SDS011;32500;50.620;3.400;2023-05-29T02:37:54;66.03;;;51.88;;
46753;SDS011;32500;50.620;3.400;2023-05-29T02:40:20;64.72;;;51.15;;
46753;SDS011;32500;50.620;3.400;2023-05-29T02:42:46;66.05;;;51.55;;
46753;SDS011;32500;50.620;3.400;2023-05-29T02:45:12;64.50;;;51.55;;
46753;SDS011;32500;50.620;3.400;2023-05-29T02:47:38;67.20;;;52.00;;
46753;SDS011;32500;50.620;3.400;2023-05-29T02:50:04;66.85;;;51.65;;
46753;SDS011;32500;50.620;3.400;2023-05-29T02:52:34;65.95;;;51.67;;
46753;SDS011;32500;50.620;3.400;2023-05-29T02:54:59;66.45;;;51.50;;
46753;SDS011;32500;50.620;3.400;2023-05-29T02:57:25;65.20;;;51.33;;
46753;SDS011;32500;50.620;3.400;2023-05-29T02:59:51;67.25;;;51.50;;
46753;SDS011;32500;50.620;3.400;2023-05-29T03:02:17;64.78;;;51.63;;
46753;SDS011;32500;50.620;3.400;2023-05-29T03:04:44;64.40;;;51.10;;
46753;SDS011;32500;50.620;3.400;2023-05-29T03:07:10;65.55;;;51.25;;
46753;SDS011;32500;50.620;3.400;2023-05-29T03:09:35;64.88;;;50.88;;
46753;SDS011;32500;50.620;3.400;2023-05-29T03:12:01;64.93;;;51.45;;
46753;SDS011;32500;50.620;3.400;2023-05-29T03:14:27;65.82;;;51.28;;
46753;SDS011;32500;50.620;3.400;2023-05-29T03:16:53;66.80;;;51.25;;
46753;SDS011;32500;50.620;3.400;2023-05-29T03:19:19;64.40;;;51.33;;
46753;SDS011;32500;50.620;3.400;2023-05-29T03:21:45;68.65;;;51.65;;
46753;SDS011;32500;50.620;3.400;2023-05-29T03:24:11;68.60;;;51.58;;
46753;SDS011;32500;50.620;3.400;2023-05-29T03:26:38;64.65;;;51.15;;
46753;SDS011;32500;50.620;3.400;2023-05-29T03:29:04;64.95;;;50.92;;
46753;SDS011;32500;50.620;3.400;2023-05-29T03:31:30;65.47;;;51.42;;
46753;SDS011;32500;50.620;3.400;2023-05-29T03:33:56;65.60;;;50.83;;
46753;SDS011;32500;50.620;3.400;2023-05-29T03:36:22;65.57;;;51.38;;
46753;SDS011;32500;50.620;3.400;2023-05-29T03:38:48;67.57;;;51.28;;
46753;SDS011;32500;50.620;3.400;2023-05-29T03:41:13;63.95;;;50.55;;
46753;SDS011;32500;50.620;3.400;2023-05-29T03:43:39;65.20;;;51.17;;
46753;SDS011;32500;50.620;3.400;2023-05-29T03:46:05;65.15;;;51.03;;
46753;SDS011;32500;50.620;3.400;2023-05-29T03:48:30;66.32;;;51.13;;
46753;SDS011;32500;50.620;3.400;2023-05-29T03:50:56;65.70;;;51.60;;
46753;SDS011;32500;50.620;3.400;2023-05-29T03:53:22;65.88;;;51.05;;
46753;SDS011;32500;50.620;3.400;2023-05-29T03:55:47;65.28;;;50.80;;
46753;SDS011;32500;50.620;3.400;2023-05-29T03:58:13;66.78;;;50.83;;
46753;SDS011;32500;50.620;3.400;2023-05-29T04:00:39;67.93;;;51.28;;
46753;SDS011;32500;50.620;3.400;2023-05-29T04:03:05;64.88;;;50.47;;
46753;SDS011;32500;50.620;3.400;2023-05-29T04:05:31;64.22;;;50.45;;
46753;SDS011;32500;50.620;3.400;2023-05-29T04:07:56;64.38;;;50.72;;
46753;SDS011;32500;50.620;3.400;2023-05-29T04:10:22;64.60;;;51.10;;
46753;SDS011;32500;50.620;3.400;2023-05-29T04:12:51;66.47;;;50.47;;
46753;SDS011;32500;50.620;3.400;2023-05-29T04:15:16;64.53;;;50.88;;
46753;SDS011;32500;50.620;3.400;2023-05-29T04:17:42;64.90;;;50.95;;
46753;SDS011;32500;50.620;3.400;2023-05-29T04:20:08;65.72;;;50.40;;
46753;SDS011;32500;50.620;3.400;2023-05-29T04:22:37;65.05;;;50.92;;
46753;SDS011;32500;50.620;3.400;2023-05-29T04:25:03;64.50;;;50.75;;
46753;SDS011;32500;50.620;3.400;2023-05-29T04:27:30;64.82;;;50.80;;
46753;SDS011;32500;50.620;3.400;2023-05-29T04:29:57;65.60;;;50.85;;
46753;SDS011;32500;50.620;3.400;2023-05-29T04:32:23;65.90;;;51.00;;
46753;SDS011;32500;50.620;3.400;2023-05-29T04:34:49;63.83;;;50.40;;
46753;SDS011;32500;50.620;3.400;2023-05-29T04:37:16;66.40;;;50.78;;
46753;SDS011;32500;50.620;3.400;2023-05-29T04:39:42;66.47;;;50.45;;
46753;SDS011;32500;50.620;3.400;2023-05-29T04:42:08;64.88;;;50.95;;
46753;SDS011;32500;50.620;3.400;2023-05-29T04:44:33;65.00;;;50.95;;
46753;SDS011;32500;50.620;3.400;2023-05-29T04:46:59;67.60;;;50.80;;
46753;SDS011;32500;50.620;3.400;2023-05-29T04:49:28;66.38;;;50.75;;
46753;SDS011;32500;50.620;3.400;2023-05-29T04:51:54;65.45;;;50.40;;
46753;SDS011;32500;50.620;3.400;2023-05-29T04:54:21;66.38;;;51.25;;
46753;SDS011;32500;50.620;3.400;2023-05-29T04:56:47;66.32;;;50.63;;
46753;SDS011;32500;50.620;3.400;2023-05-29T04:59:13;66.57;;;50.55;;
46753;SDS011;32500;50.620;3.400;2023-05-29T05:01:39;65.40;;;50.65;;
46753;SDS011;32500;50.620;3.400;2023-05-29T05:04:08;65.47;;;50.58;;
46753;SDS011;32500;50.620;3.400;2023-05-29T05:06:34;64.18;;;50.42;;
46753;SDS011;32500;50.620;3.400;2023-05-29T05:08:59;63.13;;;50.35;;
46753;SDS011;32500;50.620;3.400;2023-05-29T05:11:26;65.45;;;50.42;;
46753;SDS011;32500;50.620;3.400;2023-05-29T05:13:51;64.57;;;50.85;;
46753;SDS011;32500;50.620;3.400;2023-05-29T05:16:17;64.50;;;50.35;;
46753;SDS011;32500;50.620;3.400;2023-05-29T05:18:43;64.72;;;50.60;;
46753;SDS011;32500;50.620;3.400;2023-05-29T05:21:09;65.97;;;50.50;;
46753;SDS011;32500;50.620;3.400;2023-05-29T05:23:35;65.80;;;50.47;;
46753;SDS011;32500;50.620;3.400;2023-05-29T05:26:01;64.82;;;50.15;;
46753;SDS011;32500;50.620;3.400;2023-05-29T05:28:27;64.20;;;50.47;;
46753;SDS011;32500;50.620;3.400;2023-05-29T05:30:52;64.50;;;50.55;;
46753;SDS011;32500;50.620;3.400;2023-05-29T05:33:18;66.57;;;50.72;;
46753;SDS011;32500;50.620;3.400;2023-05-29T05:35:44;65.88;;;50.28;;
46753;SDS011;32500;50.620;3.400;2023-05-29T05:38:09;63.63;;;50.50;;
46753;SDS011;32500;50.620;3.400;2023-05-29T05:40:35;63.67;;;50.22;;
46753;SDS011;32500;50.620;3.400;2023-05-29T05:43:01;65.43;;;50.60;;
46753;SDS011;32500;50.620;3.400;2023-05-29T05:45:26;65.57;;;50.67;;
46753;SDS011;32500;50.620;3.400;2023-05-29T05:47:52;65.57;;;50.47;;
46753;SDS011;32500;50.620;3.400;2023-05-29T05:50:18;65.80;;;50.42;;
46753;SDS011;32500;50.620;3.400;2023-05-29T05:52:43;68.13;;;50.55;;
46753;SDS011;32500;50.620;3.400;2023-05-29T05:55:10;64.45;;;50.53;;
46753;SDS011;32500;50.620;3.400;2023-05-29T05:57:36;65.22;;;50.53;;
46753;SDS011;32500;50.620;3.400;2023-05-29T06:00:04;65.78;;;50.50;;
46753;SDS011;32500;50.620;3.400;2023-05-29T06:02:37;64.72;;;50.17;;
46753;SDS011;32500;50.620;3.400;2023-05-29T06:05:06;66.30;;;50.55;;
46753;SDS011;32500;50.620;3.400;2023-05-29T06:07:32;65.65;;;50.50;;
46753;SDS011;32500;50.620;3.400;2023-05-29T06:09:58;65.85;;;50.70;;
46753;SDS011;32500;50.620;3.400;2023-05-29T06:12:23;65.18;;;50.78;;
46753;SDS011;32500;50.620;3.400;2023-05-29T06:14:49;66.47;;;50.75;;
46753;SDS011;32500;50.620;3.400;2023-05-29T06:17:15;64.90;;;50.45;;
46753;SDS011;32500;50.620;3.400;2023-05-29T06:19:41;66.05;;;50.80;;
46753;SDS011;32500;50.620;3.400;2023-05-29T06:22:06;64.18;;;50.13;;
46753;SDS011;32500;50.620;3.400;2023-05-29T06:24:32;67.47;;;50.38;;
46753;SDS011;32500;50.620;3.400;2023-05-29T06:26:58;64.80;;;50.47;;
46753;SDS011;32500;50.620;3.400;2023-05-29T06:29:23;68.72;;;50.70;;
46753;SDS011;32500;50.620;3.400;2023-05-29T06:31:49;72.85;;;50.65;;
46753;SDS011;32500;50.620;3.400;2023-05-29T06:34:15;70.18;;;50.55;;
46753;SDS011;32500;50.620;3.400;2023-05-29T06:36:40;69.60;;;51.03;;
46753;SDS011;32500;50.620;3.400;2023-05-29T06:39:07;69.03;;;50.70;;
46753;SDS011;32500;50.620;3.400;2023-05-29T06:41:32;71.28;;;50.65;;
46753;SDS011;32500;50.620;3.400;2023-05-29T06:43:58;70.25;;;50.85;;
46753;SDS011;32500;50.620;3.400;2023-05-29T06:46:24;67.80;;;50.72;;
46753;SDS011;32500;50.620;3.400;2023-05-29T06:48:49;72.38;;;50.55;;
46753;SDS011;32500;50.620;3.400;2023-05-29T06:51:15;68.80;;;50.88;;
46753;SDS011;32500;50.620;3.400;2023-05-29T06:53:42;69.13;;;51.00;;
46753;SDS011;32500;50.620;3.400;2023-05-29T06:56:08;67.22;;;50.60;;
46753;SDS011;32500;50.620;3.400;2023-05-29T06:58:33;69.97;;;50.75;;
46753;SDS011;32500;50.620;3.400;2023-05-29T07:01:00;72.32;;;51.05;;
46753;SDS011;32500;50.620;3.400;2023-05-29T07:03:26;75.00;;;51.05;;
46753;SDS011;32500;50.620;3.400;2023-05-29T07:05:52;70.13;;;50.53;;
46753;SDS011;32500;50.620;3.400;2023-05-29T07:08:18;70.53;;;50.58;;
46753;SDS011;32500;50.620;3.400;2023-05-29T07:10:44;71.07;;;50.70;;
46753;SDS011;32500;50.620;3.400;2023-05-29T07:13:09;69.47;;;50.20;;
46753;SDS011;32500;50.620;3.400;2023-05-29T07:15:38;68.10;;;50.22;;
46753;SDS011;32500;50.620;3.400;2023-05-29T07:18:04;76.07;;;50.55;;
46753;SDS011;32500;50.620;3.400;2023-05-29T07:20:29;71.75;;;50.85;;
46753;SDS011;32500;50.620;3.400;2023-05-29T07:22:55;68.45;;;51.00;;
46753;SDS011;32500;50.620;3.400;2023-05-29T07:25:21;69.35;;;50.47;;
46753;SDS011;32500;50.620;3.400;2023-05-29T07:27:46;67.55;;;50.53;;
46753;SDS011;32500;50.620;3.400;2023-05-29T07:30:12;68.05;;;50.70;;
46753;SDS011;32500;50.620;3.400;2023-05-29T07:32:38;69.45;;;50.33;;
46753;SDS011;32500;50.620;3.400;2023-05-29T07:35:04;66.70;;;50.22;;
46753;SDS011;32500;50.620;3.400;2023-05-29T07:37:30;70.55;;;50.88;;
46753;SDS011;32500;50.620;3.400;2023-05-29T07:39:56;68.72;;;50.80;;
46753;SDS011;32500;50.620;3.400;2023-05-29T07:42:22;67.85;;;50.60;;
46753;SDS011;32500;50.620;3.400;2023-05-29T07:44:48;68.05;;;50.30;;
46753;SDS011;32500;50.620;3.400;2023-05-29T07:47:13;71.88;;;51.13;;
46753;SDS011;32500;50.620;3.400;2023-05-29T07:49:40;71.70;;;50.70;;
46753;SDS011;32500;50.620;3.400;2023-05-29T07:52:05;69.47;;;50.55;;
46753;SDS011;32500;50.620;3.400;2023-05-29T07:54:31;73.07;;;50.22;;
46753;SDS011;32500;50.620;3.400;2023-05-29T07:57:01;70.50;;;50.90;;
46753;SDS011;32500;50.620;3.400;2023-05-29T07:59:34;69.85;;;50.72;;
46753;SDS011;32500;50.620;3.400;2023-05-29T08:02:00;70.03;;;50.83;;
46753;SDS011;32500;50.620;3.400;2023-05-29T08:04:28;72.13;;;50.90;;
46753;SDS011;32500;50.620;3.400;2023-05-29T08:06:54;71.05;;;50.72;;
46753;SDS011;32500;50.620;3.400;2023-05-29T08:09:20;69.88;;;50.78;;
46753;SDS011;32500;50.620;3.400;2023-05-29T08:11:46;69.72;;;51.20;;
46753;SDS011;32500;50.620;3.400;2023-05-29T08:14:13;69.10;;;50.28;;
46753;SDS011;32500;50.620;3.400;2023-05-29T08:16:40;69.38;;;50.70;;
46753;SDS011;32500;50.620;3.400;2023-05-29T08:19:05;72.75;;;51.15;;
46753;SDS011;32500;50.620;3.400;2023-05-29T08:21:31;72.28;;;50.92;;
46753;SDS011;32500;50.620;3.400;2023-05-29T08:23:57;75.75;;;50.85;;
46753;SDS011;32500;50.620;3.400;2023-05-29T08:26:23;71.38;;;50.75;;
46753;SDS011;32500;50.620;3.400;2023-05-29T08:28:49;69.28;;;50.90;;
46753;SDS011;32500;50.620;3.400;2023-05-29T08:31:15;70.10;;;50.80;;
46753;SDS011;32500;50.620;3.400;2023-05-29T08:33:41;71.10;;;50.67;;
46753;SDS011;32500;50.620;3.400;2023-05-29T08:36:07;69.93;;;50.58;;
46753;SDS011;32500;50.620;3.400;2023-05-29T08:38:33;68.32;;;50.85;;
46753;SDS011;32500;50.620;3.400;2023-05-29T08:41:00;71.00;;;50.85;;
46753;SDS011;32500;50.620;3.400;2023-05-29T08:43:28;71.78;;;50.60;;
46753;SDS011;32500;50.620;3.400;2023-05-29T08:45:56;66.95;;;50.40;;
46753;SDS011;32500;50.620;3.400;2023-05-29T08:48:25;69.20;;;50.88;;
46753;SDS011;32500;50.620;3.400;2023-05-29T08:50:53;66.88;;;50.63;;
46753;SDS011;32500;50.620;3.400;2023-05-29T08:53:21;67.47;;;50.50;;
46753;SDS011;32500;50.620;3.400;2023-05-29T08:55:47;68.68;;;50.80;;
46753;SDS011;32500;50.620;3.400;2023-05-29T08:58:16;68.32;;;50.72;;
46753;SDS011;32500;50.620;3.400;2023-05-29T09:00:43;71.72;;;50.75;;
46753;SDS011;32500;50.620;3.400;2023-05-29T09:03:12;66.05;;;50.53;;
46753;SDS011;32500;50.620;3.400;2023-05-29T09:05:39;68.45;;;50.72;;
46753;SDS011;32500;50.620;3.400;2023-05-29T09:08:05;69.55;;;51.15;;
46753;SDS011;32500;50.620;3.400;2023-05-29T09:10:32;73.20;;;51.00;;
46753;SDS011;32500;50.620;3.400;2023-05-29T09:12:58;72.72;;;51.33;;
46753;SDS011;32500;50.620;3.400;2023-05-29T09:15:24;70.32;;;51.03;;
46753;SDS011;32500;50.620;3.400;2023-05-29T09:17:53;66.18;;;50.80;;
46753;SDS011;32500;50.620;3.400;2023-05-29T09:20:21;69.40;;;51.13;;
46753;SDS011;32500;50.620;3.400;2023-05-29T09:25:29;67.05;;;50.65;;
46753;SDS011;32500;50.620;3.400;2023-05-29T09:28:03;66.60;;;50.70;;
46753;SDS011;32500;50.620;3.400;2023-05-29T09:30:34;66.72;;;51.00;;
46753;SDS011;32500;50.620;3.400;2023-05-29T09:33:08;70.97;;;51.42;;
46753;SDS011;32500;50.620;3.400;2023-05-29T09:38:07;71.70;;;51.45;;
46753;SDS011;32500;50.620;3.400;2023-05-29T09:40:38;71.03;;;51.35;;
46753;SDS011;32500;50.620;3.400;2023-05-29T09:43:15;73.57;;;51.53;;
46753;SDS011;32500;50.620;3.400;2023-05-29T09:45:46;69.53;;;51.28;;
46753;SDS011;32500;50.620;3.400;2023-05-29T09:48:14;72.55;;;50.85;;
46753;SDS011;32500;50.620;3.400;2023-05-29T09:50:44;68.70;;;51.13;;
46753;SDS011;32500;50.620;3.400;2023-05-29T09:53:22;72.38;;;51.67;;
46753;SDS011;32500;50.620;3.400;2023-05-29T09:55:52;72.05;;;51.38;;
46753;SDS011;32500;50.620;3.400;2023-05-29T09:58:24;70.07;;;51.30;;
46753;SDS011;32500;50.620;3.400;2023-05-29T10:00:50;71.40;;;51.55;;
46753;SDS011;32500;50.620;3.400;2023-05-29T10:03:17;69.70;;;51.33;;
46753;SDS011;32500;50.620;3.400;2023-05-29T10:05:47;70.45;;;51.38;;
46753;SDS011;32500;50.620;3.400;2023-05-29T10:10:44;72.43;;;51.38;;
46753;SDS011;32500;50.620;3.400;2023-05-29T10:13:12;69.38;;;51.70;;
46753;SDS011;32500;50.620;3.400;2023-05-29T10:15:43;73.05;;;51.58;;
46753;SDS011;32500;50.620;3.400;2023-05-29T10:20:44;72.65;;;51.70;;
46753;SDS011;32500;50.620;3.400;2023-05-29T10:25:43;71.80;;;51.67;;
46753;SDS011;32500;50.620;3.400;2023-05-29T10:28:13;76.85;;;51.95;;
46753;SDS011;32500;50.620;3.400;2023-05-29T10:36:21;75.38;;;52.33;;
46753;SDS011;32500;50.620;3.400;2023-05-29T10:38:49;72.72;;;52.00;;
46753;SDS011;32500;50.620;3.400;2023-05-29T10:43:59;72.28;;;52.10;;
46753;SDS011;32500;50.620;3.400;2023-05-29T10:49:19;71.05;;;51.55;;
46753;SDS011;32500;50.620;3.400;2023-05-29T10:51:46;71.88;;;51.45;;
46753;SDS011;32500;50.620;3.400;2023-05-29T10:54:13;71.95;;;51.70;;
46753;SDS011;32500;50.620;3.400;2023-05-29T10:56:39;75.90;;;51.65;;
46753;SDS011;32500;50.620;3.400;2023-05-29T10:59:07;73.70;;;52.22;;
46753;SDS011;32500;50.620;3.400;2023-05-29T11:01:33;74.55;;;52.22;;
46753;SDS011;32500;50.620;3.400;2023-05-29T11:06:40;74.78;;;52.35;;
46753;SDS011;32500;50.620;3.400;2023-05-29T11:09:26;73.28;;;52.33;;
46753;SDS011;32500;50.620;3.400;2023-05-29T11:15:02;75.20;;;52.30;;
46753;SDS011;32500;50.620;3.400;2023-05-29T11:20:06;72.53;;;52.15;;
46753;SDS011;32500;50.620;3.400;2023-05-29T11:22:56;71.07;;;51.92;;
46753;SDS011;32500;50.620;3.400;2023-05-29T11:25:28;70.97;;;51.95;;
46753;SDS011;32500;50.620;3.400;2023-05-29T11:27:58;80.93;;;52.15;;
46753;SDS011;32500;50.620;3.400;2023-05-29T11:30:23;76.82;;;52.45;;
46753;SDS011;32500;50.620;3.400;2023-05-29T11:32:49;74.60;;;51.58;;
46753;SDS011;32500;50.620;3.400;2023-05-29T11:35:17;70.72;;;51.53;;
46753;SDS011;32500;50.620;3.400;2023-05-29T11:37:47;76.95;;;52.08;;
46753;SDS011;32500;50.620;3.400;2023-05-29T11:40:15;75.00;;;52.25;;
46753;SDS011;32500;50.620;3.400;2023-05-29T11:42:45;72.28;;;52.10;;
46753;SDS011;32500;50.620;3.400;2023-05-29T11:45:16;73.18;;;51.67;;
46753;SDS011;32500;50.620;3.400;2023-05-29T11:47:53;78.10;;;52.55;;
46753;SDS011;32500;50.620;3.400;2023-05-29T11:50:21;74.30;;;52.58;;
46753;SDS011;32500;50.620;3.400;2023-05-29T11:52:49;74.20;;;52.67;;
46753;SDS011;32500;50.620;3.400;2023-05-29T11:55:16;76.18;;;52.38;;
46753;SDS011;32500;50.620;3.400;2023-05-29T11:57:43;72.32;;;51.90;;
46753;SDS011;32500;50.620;3.400;2023-05-29T12:00:12;75.00;;;52.28;;
46753;SDS011;32500;50.620;3.400;2023-05-29T12:02:42;75.95;;;52.85;;
46753;SDS011;32500;50.620;3.400;2023-05-29T12:05:08;75.88;;;52.35;;
46753;SDS011;32500;50.620;3.400;2023-05-29T12:07:35;75.68;;;53.15;;
46753;SDS011;32500;50.620;3.400;2023-05-29T12:10:09;79.03;;;52.65;;
46753;SDS011;32500;50.620;3.400;2023-05-29T12:12:35;75.18;;;52.70;;
46753;SDS011;32500;50.620;3.400;2023-05-29T12:15:01;76.97;;;52.40;;
46753;SDS011;32500;50.620;3.400;2023-05-29T12:17:30;71.43;;;52.42;;
46753;SDS011;32500;50.620;3.400;2023-05-29T12:19:56;72.47;;;52.63;;
46753;SDS011;32500;50.620;3.400;2023-05-29T12:22:35;74.88;;;52.53;;
46753;SDS011;32500;50.620;3.400;2023-05-29T12:27:32;75.43;;;52.28;;
46753;SDS011;32500;50.620;3.400;2023-05-29T12:30:03;73.57;;;52.78;;
46753;SDS011;32500;50.620;3.400;2023-05-29T12:32:36;72.78;;;52.08;;
46753;SDS011;32500;50.620;3.400;2023-05-29T12:35:16;75.35;;;52.50;;
46753;SDS011;32500;50.620;3.400;2023-05-29T12:37:44;72.53;;;51.78;;
46753;SDS011;32500;50.620;3.400;2023-05-29T12:40:18;73.60;;;52.15;;
46753;SDS011;32500;50.620;3.400;2023-05-29T12:42:48;70.97;;;52.20;;
46753;SDS011;32500;50.620;3.400;2023-05-29T12:45:19;71.43;;;52.05;;
46753;SDS011;32500;50.620;3.400;2023-05-29T12:47:50;71.40;;;52.17;;
46753;SDS011;32500;50.620;3.400;2023-05-29T12:50:30;73.70;;;52.28;;
46753;SDS011;32500;50.620;3.400;2023-05-29T12:53:00;75.45;;;52.60;;
46753;SDS011;32500;50.620;3.400;2023-05-29T12:55:27;72.47;;;52.53;;
46753;SDS011;32500;50.620;3.400;2023-05-29T12:57:54;74.03;;;52.25;;
46753;SDS011;32500;50.620;3.400;2023-05-29T13:00:21;71.68;;;52.00;;
46753;SDS011;32500;50.620;3.400;2023-05-29T13:02:48;72.18;;;52.05;;
46753;SDS011;32500;50.620;3.400;2023-05-29T13:05:14;73.18;;;52.05;;
46753;SDS011;32500;50.620;3.400;2023-05-29T13:07:41;73.57;;;51.78;;
46753;SDS011;32500;50.620;3.400;2023-05-29T13:10:07;72.95;;;52.22;;
46753;SDS011;32500;50.620;3.400;2023-05-29T13:12:34;72.20;;;52.08;;
46753;SDS011;32500;50.620;3.400;2023-05-29T13:15:00;72.82;;;52.33;;
46753;SDS011;32500;50.620;3.400;2023-05-29T13:17:26;69.20;;;52.08;;
46753;SDS011;32500;50.620;3.400;2023-05-29T13:19:51;73.22;;;51.80;;
46753;SDS011;32500;50.620;3.400;2023-05-29T13:22:17;80.35;;;52.10;;
46753;SDS011;32500;50.620;3.400;2023-05-29T13:24:43;69.45;;;52.40;;
46753;SDS011;32500;50.620;3.400;2023-05-29T13:27:08;72.95;;;52.63;;
46753;SDS011;32500;50.620;3.400;2023-05-29T13:29:34;73.30;;;52.42;;
46753;SDS011;32500;50.620;3.400;2023-05-29T13:32:00;71.35;;;52.10;;
46753;SDS011;32500;50.620;3.400;2023-05-29T13:34:26;72.25;;;52.13;;
46753;SDS011;32500;50.620;3.400;2023-05-29T13:36:56;72.82;;;52.47;;
46753;SDS011;32500;50.620;3.400;2023-05-29T13:39:22;74.15;;;52.65;;
46753;SDS011;32500;50.620;3.400;2023-05-29T13:41:49;71.43;;;51.97;;
46753;SDS011;32500;50.620;3.400;2023-05-29T13:44:15;72.93;;;52.25;;
46753;SDS011;32500;50.620;3.400;2023-05-29T13:46:41;71.85;;;52.40;;
46753;SDS011;32500;50.620;3.400;2023-05-29T13:49:07;72.03;;;52.35;;
46753;SDS011;32500;50.620;3.400;2023-05-29T13:51:33;72.53;;;51.92;;
46753;SDS011;32500;50.620;3.400;2023-05-29T13:54:00;70.80;;;52.38;;
46753;SDS011;32500;50.620;3.400;2023-05-29T13:56:27;72.82;;;52.20;;
46753;SDS011;32500;50.620;3.400;2023-05-29T13:58:54;74.22;;;52.40;;
46753;SDS011;32500;50.620;3.400;2023-05-29T14:01:19;72.88;;;52.17;;
46753;SDS011;32500;50.620;3.400;2023-05-29T14:03:46;74.40;;;52.55;;
46753;SDS011;32500;50.620;3.400;2023-05-29T14:06:11;73.93;;;52.65;;
46753;SDS011;32500;50.620;3.400;2023-05-29T14:08:37;71.75;;;52.70;;
46753;SDS011;32500;50.620;3.400;2023-05-29T14:11:03;72.65;;;52.35;;
46753;SDS011;32500;50.620;3.400;2023-05-29T14:13:29;74.45;;;52.83;;
46753;SDS011;32500;50.620;3.400;2023-05-29T14:15:54;71.60;;;52.58;;
46753;SDS011;32500;50.620;3.400;2023-05-29T14:18:22;75.57;;;52.72;;
46753;SDS011;32500;50.620;3.400;2023-05-29T14:20:48;74.68;;;52.55;;
46753;SDS011;32500;50.620;3.400;2023-05-29T14:23:14;73.85;;;52.45;;
46753;SDS011;32500;50.620;3.400;2023-05-29T14:25:41;77.30;;;52.78;;
46753;SDS011;32500;50.620;3.400;2023-05-29T14:28:07;74.25;;;52.88;;
46753;SDS011;32500;50.620;3.400;2023-05-29T14:30:33;74.25;;;52.47;;
46753;SDS011;32500;50.620;3.400;2023-05-29T14:32:59;72.85;;;52.35;;
46753;SDS011;32500;50.620;3.400;2023-05-29T14:35:25;73.70;;;52.50;;
46753;SDS011;32500;50.620;3.400;2023-05-29T14:37:51;75.82;;;52.72;;
46753;SDS011;32500;50.620;3.400;2023-05-29T14:40:16;73.10;;;53.03;;
46753;SDS011;32500;50.620;3.400;2023-05-29T14:42:42;75.68;;;52.42;;
46753;SDS011;32500;50.620;3.400;2023-05-29T14:45:08;74.40;;;52.38;;
46753;SDS011;32500;50.620;3.400;2023-05-29T14:47:34;72.63;;;52.33;;
46753;SDS011;32500;50.620;3.400;2023-05-29T14:50:00;74.03;;;52.55;;
46753;SDS011;32500;50.620;3.400;2023-05-29T14:52:26;72.20;;;52.63;;
46753;SDS011;32500;50.620;3.400;2023-05-29T14:54:52;72.75;;;53.00;;
46753;SDS011;32500;50.620;3.400;2023-05-29T14:57:18;74.10;;;52.85;;
46753;SDS011;32500;50.620;3.400;2023-05-29T14:59:43;75.90;;;52.47;;
46753;SDS011;32500;50.620;3.400;2023-05-29T15:02:09;76.70;;;52.75;;
46753;SDS011;32500;50.620;3.400;2023-05-29T15:04:35;71.93;;;52.72;;
46753;SDS011;32500;50.620;3.400;2023-05-29T15:07:01;74.57;;;53.08;;